createdAt,value
2019-02-19T00:00:51.026Z,20.03
2019-02-19T00:03:20.707Z,16.03
2019-02-19T00:05:50.832Z,17.17
2019-02-19T00:08:20.047Z,20.37
2019-02-19T00:10:50.358Z,19.40
2019-02-19T00:13:21.391Z,17.23
2019-02-19T00:15:51.039Z,17.97
2019-02-19T00:18:21.144Z,15.53
2019-02-19T00:20:51.131Z,18.77
2019-02-19T00:23:20.946Z,17.43
2019-02-19T00:25:50.139Z,17.00
2019-02-19T00:28:19.574Z,18.07
2019-02-19T00:30:49.600Z,16.80
2019-02-19T00:33:19.267Z,18.13
2019-02-19T00:35:48.967Z,18.93
2019-02-19T00:38:18.814Z,25.73
2019-02-19T00:40:48.344Z,21.03
2019-02-19T00:43:17.910Z,20.77
2019-02-19T00:45:47.243Z,17.27
2019-02-19T00:48:16.880Z,19.07
2019-02-19T00:50:47.842Z,18.20
2019-02-19T00:53:17.649Z,17.80
2019-02-19T00:55:47.062Z,24.27
2019-02-19T00:58:16.272Z,20.53
2019-02-19T01:00:46.022Z,21.37
2019-02-19T01:03:16.007Z,20.63
2019-02-19T01:05:45.697Z,20.73
2019-02-19T01:08:16.397Z,22.93
2019-02-19T01:10:46.670Z,21.70
2019-02-19T01:13:15.850Z,24.90
2019-02-19T01:15:45.133Z,21.60
2019-02-19T01:18:14.570Z,21.93
2019-02-19T01:20:43.697Z,20.67
2019-02-19T01:23:13.170Z,23.23
2019-02-19T01:25:42.555Z,22.77
2019-02-19T01:28:13.178Z,25.03
2019-02-19T01:30:43.419Z,22.63
2019-02-19T01:33:13.026Z,24.40
2019-02-19T01:35:43.226Z,22.17
2019-02-19T01:38:12.654Z,23.63
2019-02-19T01:40:42.055Z,24.53
2019-02-19T01:43:17.193Z,19.00
2019-02-19T01:45:46.882Z,20.77
2019-02-19T01:48:16.040Z,20.23
2019-02-19T01:50:46.198Z,22.60
2019-02-19T01:53:15.526Z,18.47
2019-02-19T01:55:45.427Z,17.73
2019-02-19T01:58:14.820Z,21.07
2019-02-19T02:00:44.711Z,22.87
2019-02-19T02:03:15.430Z,24.40
2019-02-19T02:05:45.602Z,18.87
2019-02-19T02:08:15.087Z,19.83
2019-02-19T02:10:44.304Z,25.87
2019-02-19T02:13:14.282Z,22.90
2019-02-19T02:15:44.143Z,20.17
2019-02-19T02:18:13.679Z,19.70
2019-02-19T02:20:43.462Z,16.60
2019-02-19T02:23:13.529Z,19.00
2019-02-19T02:25:42.814Z,20.53
2019-02-19T02:28:12.164Z,20.83
2019-02-19T02:30:41.454Z,17.87
2019-02-19T02:33:10.870Z,17.03
2019-02-19T02:35:40.064Z,17.67
2019-02-19T02:38:09.343Z,20.53
2019-02-19T02:40:39.764Z,18.40
2019-02-19T02:43:10.104Z,20.37
2019-02-19T02:45:39.727Z,19.40
2019-02-19T02:48:09.107Z,18.87
2019-02-19T02:50:38.440Z,20.67
2019-02-19T02:53:08.231Z,20.30
2019-02-19T02:55:38.284Z,19.23
2019-02-19T02:58:09.712Z,24.47
2019-02-19T03:00:40.070Z,20.00
2019-02-19T03:03:09.635Z,26.00
2019-02-19T03:05:40.456Z,17.67
2019-02-19T03:08:10.875Z,18.70
2019-02-19T03:10:40.301Z,15.17
2019-02-19T03:13:10.401Z,19.03
2019-02-19T03:15:40.834Z,24.73
2019-02-19T03:18:10.440Z,20.40
2019-02-19T03:20:39.744Z,19.87
2019-02-19T03:23:09.794Z,21.93
2019-02-19T03:25:39.147Z,17.93
2019-02-19T03:28:08.473Z,20.00
2019-02-19T03:30:38.086Z,19.77
2019-02-19T03:33:07.363Z,19.97
2019-02-19T03:35:38.279Z,19.03
2019-02-19T03:38:07.761Z,21.23
2019-02-19T03:40:37.712Z,17.50
2019-02-19T03:43:07.114Z,18.13
2019-02-19T03:45:37.521Z,22.90
2019-02-19T03:48:07.014Z,17.03
2019-02-19T03:50:36.866Z,23.33
2019-02-19T03:53:08.178Z,19.37
2019-02-19T03:55:38.727Z,17.30
2019-02-19T03:58:08.769Z,21.37
2019-02-19T04:00:38.221Z,17.87
2019-02-19T04:03:07.582Z,17.57
2019-02-19T04:05:36.962Z,20.23
2019-02-19T04:08:06.228Z,14.70
2019-02-19T04:10:35.464Z,20.33
2019-02-19T04:13:05.565Z,19.67
2019-02-19T04:15:35.617Z,20.70
2019-02-19T04:18:04.926Z,22.40
2019-02-19T04:20:34.220Z,20.40
2019-02-19T04:23:03.534Z,22.70
2019-02-19T04:25:32.760Z,23.93
2019-02-19T04:28:03.831Z,20.80
2019-02-19T04:30:33.098Z,19.20
2019-02-19T04:33:02.619Z,23.63
2019-02-19T04:35:32.043Z,22.67
2019-02-19T04:38:02.137Z,21.93
2019-02-19T04:40:31.365Z,18.53
2019-02-19T04:43:00.641Z,18.40
2019-02-19T04:45:30.242Z,21.00
2019-02-19T04:48:00.327Z,20.00
2019-02-19T04:50:29.797Z,28.40
2019-02-19T04:53:00.396Z,18.37
2019-02-19T04:55:29.813Z,23.57
2019-02-19T04:57:59.009Z,14.90
2019-02-19T05:00:28.270Z,20.73
2019-02-19T05:02:57.940Z,15.63
2019-02-19T05:05:28.029Z,18.97
2019-02-19T05:07:57.449Z,19.67
2019-02-19T05:10:26.729Z,19.10
2019-02-19T05:12:56.623Z,18.30
2019-02-19T05:15:27.013Z,19.43
2019-02-19T05:17:56.128Z,17.37
2019-02-19T05:20:25.447Z,16.07
2019-02-19T05:22:54.709Z,20.73
2019-02-19T05:25:23.987Z,18.60
2019-02-19T05:27:53.197Z,18.27
2019-02-19T05:30:22.574Z,22.33
2019-02-19T05:32:53.255Z,17.90
2019-02-19T05:35:24.708Z,16.80
2019-02-19T05:37:54.087Z,16.80
2019-02-19T05:40:23.368Z,24.87
2019-02-19T05:42:52.553Z,23.23
2019-02-19T05:45:21.975Z,25.93
2019-02-19T05:47:51.488Z,20.20
2019-02-19T05:50:20.785Z,17.77
2019-02-19T05:52:51.467Z,20.13
2019-02-19T05:55:21.759Z,23.17
2019-02-19T05:57:50.965Z,22.53
2019-02-19T06:00:20.990Z,28.47
2019-02-19T06:02:50.597Z,22.03
2019-02-19T06:05:20.069Z,26.70
2019-02-19T06:07:49.242Z,22.67
2019-02-19T06:10:18.595Z,27.43
2019-02-19T06:12:48.539Z,23.07
2019-02-19T06:15:18.608Z,19.43
2019-02-19T06:17:47.982Z,20.83
2019-02-19T06:20:17.232Z,20.93
2019-02-19T06:22:46.582Z,22.47
2019-02-19T06:25:15.820Z,22.03
2019-02-19T06:27:44.979Z,23.93
2019-02-19T06:30:14.199Z,23.50
2019-02-19T06:32:43.575Z,26.53
2019-02-19T06:35:13.428Z,21.93
2019-02-19T06:37:43.590Z,20.80
2019-02-19T06:40:24.418Z,18.93
2019-02-19T06:42:55.175Z,20.03
2019-02-19T06:45:25.579Z,20.07
2019-02-19T06:47:54.963Z,19.33
2019-02-19T06:50:24.169Z,23.33
2019-02-19T06:52:53.523Z,25.57
2019-02-19T06:55:22.780Z,20.57
2019-02-19T06:57:52.154Z,27.07
2019-02-19T07:00:21.441Z,27.13
2019-02-19T07:02:52.456Z,25.33
2019-02-19T07:05:23.831Z,22.33
2019-02-19T07:07:53.028Z,21.37
2019-02-19T07:10:22.431Z,19.10
2019-02-19T07:12:51.739Z,22.53
2019-02-19T07:15:21.113Z,21.47
2019-02-19T07:17:50.225Z,26.73
2019-02-19T07:20:19.434Z,20.43
2019-02-19T07:22:50.135Z,22.67
2019-02-19T07:25:20.492Z,16.67
2019-02-19T07:27:49.937Z,20.47
2019-02-19T07:30:19.225Z,21.03
2019-02-19T07:32:48.499Z,19.60
2019-02-19T07:35:17.923Z,18.30
2019-02-19T07:37:47.182Z,24.40
2019-02-19T07:40:17.487Z,30.73
2019-02-19T07:42:47.451Z,22.23
2019-02-19T07:45:17.638Z,27.30
2019-02-19T07:47:46.892Z,22.17
2019-02-19T07:50:16.264Z,20.57
2019-02-19T07:52:45.558Z,21.43
2019-02-19T07:55:14.846Z,21.20
2019-02-19T07:57:44.137Z,19.10
2019-02-19T08:00:13.715Z,17.33
2019-02-19T08:02:44.438Z,21.90
2019-02-19T08:05:15.014Z,18.27
2019-02-19T08:07:44.335Z,19.30
2019-02-19T08:10:13.509Z,19.30
2019-02-19T08:12:42.831Z,21.47
2019-02-19T08:15:13.260Z,19.73
2019-02-19T08:17:42.660Z,19.27
2019-02-19T08:20:15.702Z,17.40
2019-02-19T08:22:44.770Z,17.40
2019-02-19T08:25:14.146Z,16.30
2019-02-19T08:27:43.433Z,16.67
2019-02-19T08:30:12.721Z,18.10
2019-02-19T08:32:42.058Z,20.80
2019-02-19T08:35:11.330Z,18.93
2019-02-19T08:37:40.661Z,12.43
2019-02-19T08:40:12.226Z,13.67
2019-02-19T08:42:42.817Z,12.07
2019-02-19T08:45:12.209Z,18.20
2019-02-19T08:47:42.910Z,15.43
2019-02-19T08:50:12.947Z,17.77
2019-02-19T08:52:42.644Z,19.50
2019-02-19T08:55:12.682Z,13.03
2019-02-19T08:57:42.762Z,12.70
2019-02-19T09:00:12.820Z,13.13
2019-02-19T09:02:42.138Z,12.30
2019-02-19T09:05:11.470Z,15.33
2019-02-19T09:07:40.849Z,16.77
2019-02-19T09:10:12.308Z,11.70
2019-02-19T09:12:41.733Z,19.53
2019-02-19T09:15:13.550Z,19.67
2019-02-19T09:17:51.284Z,21.10
2019-02-19T09:20:14.424Z,16.50
2019-02-19T09:22:43.683Z,23.30
2019-02-19T09:25:13.146Z,24.70
2019-02-19T09:27:43.436Z,17.30
2019-02-19T09:30:15.373Z,15.93
2019-02-19T09:32:45.797Z,16.83
2019-02-19T09:35:14.998Z,19.33
2019-02-19T09:37:44.875Z,17.90
2019-02-19T09:40:14.847Z,18.23
2019-02-19T09:42:44.786Z,18.57
2019-02-19T09:45:14.982Z,16.10
2019-02-19T09:47:45.443Z,14.83
2019-02-19T09:50:15.104Z,17.20
2019-02-19T09:52:44.963Z,17.43
2019-02-19T09:55:14.623Z,15.10
2019-02-19T09:57:44.551Z,20.40
2019-02-19T10:00:14.841Z,17.83
2019-02-19T10:02:44.470Z,14.87
2019-02-19T10:05:14.613Z,14.13
2019-02-19T10:07:45.513Z,18.67
2019-02-19T10:10:17.620Z,13.93
2019-02-19T10:12:47.563Z,13.53
2019-02-19T10:15:17.344Z,16.90
2019-02-19T10:17:47.257Z,15.47
2019-02-19T10:20:17.529Z,17.40
2019-02-19T10:22:47.061Z,20.60
2019-02-19T10:25:16.831Z,15.10
2019-02-19T10:27:46.014Z,16.57
2019-02-19T10:30:18.121Z,18.23
2019-02-19T10:32:48.055Z,17.73
2019-02-19T10:35:17.818Z,15.50
2019-02-19T10:37:51.853Z,22.73
2019-02-19T10:40:22.104Z,16.20
2019-02-19T10:42:51.602Z,15.43
2019-02-19T10:45:23.088Z,14.67
2019-02-19T10:47:53.285Z,14.60
2019-02-19T10:50:22.621Z,12.80
2019-02-19T10:52:52.637Z,15.60
2019-02-19T10:55:22.647Z,16.87
2019-02-19T10:57:52.019Z,15.47
2019-02-19T11:00:22.450Z,18.57
2019-02-19T11:02:51.719Z,15.40
2019-02-19T11:05:21.050Z,19.57
2019-02-19T11:07:50.313Z,17.73
2019-02-19T11:10:19.611Z,17.53
2019-02-19T11:12:50.281Z,16.10
2019-02-19T11:15:19.669Z,14.93
2019-02-19T11:17:48.849Z,15.00
2019-02-19T11:20:20.587Z,17.20
2019-02-19T11:22:50.132Z,18.17
2019-02-19T11:25:19.522Z,15.30
2019-02-19T11:27:49.666Z,20.27
2019-02-19T11:30:21.636Z,19.43
2019-02-19T11:32:51.406Z,13.67
2019-02-19T11:35:20.614Z,16.27
2019-02-19T11:37:50.221Z,16.37
2019-02-19T11:40:19.868Z,16.47
2019-02-19T11:42:49.361Z,16.17
2019-02-19T11:45:18.995Z,14.13
2019-02-19T11:47:50.217Z,17.20
2019-02-19T11:50:20.643Z,17.80
2019-02-19T11:52:50.234Z,16.47
2019-02-19T11:55:19.669Z,15.73
2019-02-19T11:57:49.902Z,14.60
2019-02-19T12:00:20.357Z,12.70
2019-02-19T12:02:49.669Z,15.80
2019-02-19T12:05:20.487Z,15.87
2019-02-19T12:07:50.907Z,15.97
2019-02-19T12:10:20.227Z,14.63
2019-02-19T12:12:50.483Z,15.40
2019-02-19T12:15:19.939Z,15.83
2019-02-19T12:17:49.300Z,14.40
2019-02-19T12:20:18.667Z,18.27
2019-02-19T12:22:47.965Z,18.90
2019-02-19T12:25:17.707Z,22.33
2019-02-19T12:27:47.921Z,19.03
2019-02-19T12:30:20.591Z,14.17
2019-02-19T12:32:49.983Z,12.80
2019-02-19T12:35:19.334Z,13.50
2019-02-19T12:37:48.783Z,12.57
2019-02-19T12:40:17.986Z,13.23
2019-02-19T12:42:47.922Z,14.37
2019-02-19T12:45:18.005Z,10.23
2019-02-19T12:47:47.411Z,10.70
2019-02-19T12:50:17.923Z,16.43
2019-02-19T12:52:47.232Z,18.40
2019-02-19T12:55:16.459Z,14.30
2019-02-19T12:57:45.844Z,10.60
2019-02-19T13:00:17.710Z,8.20
2019-02-19T13:02:47.791Z,12.77
2019-02-19T13:05:17.019Z,10.87
2019-02-19T13:07:47.080Z,14.83
2019-02-19T13:10:16.865Z,10.38
2019-02-19T13:12:46.577Z,10.68
2019-02-19T13:15:21.611Z,8.78
2019-02-19T13:17:51.033Z,8.93
2019-02-19T13:20:21.236Z,8.43
2019-02-19T13:22:50.719Z,5.60
2019-02-19T13:25:20.009Z,7.83
2019-02-19T13:27:49.117Z,5.83
2019-02-19T13:30:19.854Z,6.03
2019-02-19T13:32:50.433Z,5.07
2019-02-19T13:35:21.096Z,5.10
2019-02-19T13:37:50.304Z,4.60
2019-02-19T13:40:19.617Z,4.73
2019-02-19T13:42:48.992Z,4.43
2019-02-19T13:45:18.177Z,5.30
2019-02-19T13:47:47.613Z,6.10
2019-02-19T13:50:25.032Z,7.20
2019-02-19T13:52:58.165Z,5.37
2019-02-19T13:55:29.813Z,6.93
2019-02-19T13:57:59.805Z,7.80
2019-02-19T14:00:30.501Z,5.13
2019-02-19T14:03:01.053Z,6.67
2019-02-19T14:05:30.200Z,7.40
2019-02-19T14:07:59.571Z,8.47
2019-02-19T14:10:29.877Z,7.07
2019-02-19T14:12:59.247Z,10.80
2019-02-19T14:15:29.833Z,6.33
2019-02-19T14:18:00.455Z,5.10
2019-02-19T14:20:40.556Z,7.07
2019-02-19T14:23:15.572Z,7.07
2019-02-19T14:25:56.425Z,8.67
2019-02-19T14:28:43.117Z,12.47
2019-02-19T14:31:28.913Z,9.20
2019-02-19T14:34:11.463Z,7.57
2019-02-19T14:36:42.888Z,6.47
2019-02-19T14:39:31.061Z,8.50
2019-02-19T14:42:02.491Z,8.50
2019-02-19T14:44:49.303Z,9.53
2019-02-19T14:47:31.712Z,8.00
2019-02-19T14:50:21.005Z,7.27
2019-02-19T14:53:04.229Z,22.37
2019-02-19T14:55:50.888Z,9.10
2019-02-19T14:58:21.535Z,6.57
2019-02-19T15:00:58.793Z,5.73
2019-02-19T15:03:31.551Z,7.83
2019-02-19T15:06:03.169Z,7.20
2019-02-19T15:08:49.999Z,7.17
2019-02-19T15:11:36.797Z,5.57
2019-02-19T15:14:16.360Z,6.87
2019-02-19T15:16:56.387Z,7.70
2019-02-19T15:19:42.169Z,8.13
2019-02-19T15:22:25.482Z,5.53
2019-02-19T15:24:57.140Z,13.63
2019-02-19T15:27:30.258Z,8.73
2019-02-19T15:30:04.061Z,7.63
2019-02-19T15:32:41.612Z,7.07
2019-02-19T15:35:28.383Z,5.37
2019-02-19T15:38:01.261Z,6.43
2019-02-19T15:40:47.183Z,7.20
2019-02-19T15:43:30.297Z,4.30
2019-02-19T15:46:00.754Z,4.53
2019-02-19T15:48:42.836Z,5.03
2019-02-19T15:51:22.519Z,4.20
2019-02-19T15:54:00.312Z,7.10
2019-02-19T15:56:47.136Z,7.87
2019-02-19T15:59:17.801Z,4.03
2019-02-19T16:01:52.682Z,5.47
2019-02-19T16:04:23.306Z,4.70
2019-02-19T16:07:01.905Z,5.60
2019-02-19T16:09:40.582Z,4.77
2019-02-19T16:12:17.871Z,6.10
2019-02-19T16:14:48.563Z,9.13
2019-02-19T16:17:25.023Z,6.17
2019-02-19T16:19:57.219Z,5.70
2019-02-19T16:22:40.047Z,3.83
2019-02-19T16:25:13.770Z,3.83
2019-02-19T16:27:45.273Z,7.33
2019-02-19T16:30:27.675Z,6.47
2019-02-19T16:33:00.582Z,5.63
2019-02-19T16:35:32.026Z,7.70
2019-02-19T16:38:05.225Z,5.37
2019-02-19T16:40:53.225Z,7.50
2019-02-19T16:43:29.415Z,7.07
2019-02-19T16:46:06.969Z,5.97
2019-02-19T16:48:46.571Z,8.43
2019-02-19T16:51:24.173Z,10.37
2019-02-19T16:53:54.845Z,8.50
2019-02-19T16:56:38.007Z,9.87
2019-02-19T16:59:09.109Z,9.67
2019-02-19T17:01:55.571Z,8.27
2019-02-19T17:04:39.466Z,9.50
2019-02-19T17:07:10.755Z,11.00
2019-02-19T17:09:43.780Z,20.03
2019-02-19T17:12:14.478Z,20.00
2019-02-19T17:15:00.307Z,10.17
2019-02-19T17:17:50.673Z,10.17
2019-02-19T17:20:29.204Z,8.07
2019-02-19T17:23:11.365Z,7.63
2019-02-19T17:25:42.722Z,10.33
2019-02-19T17:28:25.221Z,8.33
2019-02-19T17:31:06.215Z,8.73
2019-02-19T17:33:39.967Z,6.63
2019-02-19T17:36:11.846Z,12.27
2019-02-19T17:38:51.566Z,8.60
2019-02-19T17:41:31.198Z,11.13
2019-02-19T17:44:02.074Z,13.63
2019-02-19T17:46:36.987Z,8.70
2019-02-19T17:49:19.636Z,11.13
2019-02-19T17:51:54.377Z,8.87
2019-02-19T17:54:27.812Z,10.10
2019-02-19T17:57:09.946Z,8.77
2019-02-19T17:59:40.749Z,9.67
2019-02-19T18:02:28.018Z,8.27
2019-02-19T18:05:05.259Z,12.90
2019-02-19T18:07:39.947Z,10.07
2019-02-19T18:10:27.048Z,10.13
2019-02-19T18:13:04.326Z,10.73
2019-02-19T18:15:51.668Z,13.63
2019-02-19T18:18:29.217Z,11.13
2019-02-19T18:20:59.527Z,8.23
2019-02-19T18:23:29.701Z,8.67
2019-02-19T18:25:58.873Z,9.60
2019-02-19T18:28:28.088Z,14.80
2019-02-19T18:30:57.391Z,9.13
2019-02-19T18:33:26.944Z,10.90
2019-02-19T18:35:57.237Z,12.30
2019-02-19T18:38:27.047Z,7.80
2019-02-19T18:40:57.408Z,13.27
2019-02-19T18:43:27.341Z,9.93
2019-02-19T18:45:56.664Z,11.37
2019-02-19T18:48:25.948Z,11.83
2019-02-19T18:50:58.551Z,12.10
2019-02-19T18:53:26.741Z,8.27
2019-02-19T18:55:58.499Z,10.43
2019-02-19T18:58:28.069Z,8.80
2019-02-19T19:00:57.387Z,10.40
2019-02-19T19:03:26.942Z,10.23
2019-02-19T19:05:56.825Z,11.17
2019-02-19T19:08:26.480Z,11.67
2019-02-19T19:10:56.628Z,13.90
2019-02-19T19:13:27.669Z,15.47
2019-02-19T19:15:58.625Z,9.20
2019-02-19T19:18:27.963Z,8.60
2019-02-19T19:20:57.629Z,9.93
2019-02-19T19:23:28.752Z,11.87
2019-02-19T19:25:58.470Z,9.43
2019-02-19T19:28:30.172Z,9.13
2019-02-19T19:31:00.653Z,10.57
2019-02-19T19:33:30.083Z,10.77
2019-02-19T19:35:59.338Z,8.97
2019-02-19T19:38:29.526Z,12.53
2019-02-19T19:40:58.965Z,14.07
2019-02-19T19:43:29.019Z,11.37
2019-02-19T19:46:00.335Z,17.50
2019-02-19T19:48:30.298Z,8.57
2019-02-19T19:51:00.041Z,12.93
2019-02-19T19:53:29.525Z,10.87
2019-02-19T19:55:59.684Z,11.57
2019-02-19T19:58:28.880Z,10.53
2019-02-19T20:00:58.399Z,13.03
2019-02-19T20:03:28.338Z,13.60
2019-02-19T20:05:59.662Z,12.47
2019-02-19T20:08:29.799Z,11.17
2019-02-19T20:10:59.176Z,13.60
2019-02-19T20:13:28.400Z,11.20
2019-02-19T20:15:57.983Z,18.13
2019-02-19T20:18:28.082Z,13.07
2019-02-19T20:20:57.863Z,15.33
2019-02-19T20:23:28.763Z,18.23
2019-02-19T20:25:58.829Z,15.67
2019-02-19T20:28:28.956Z,15.80
2019-02-19T20:30:59.094Z,13.07
2019-02-19T20:33:29.111Z,12.60
2019-02-19T20:35:58.414Z,16.77
2019-02-19T20:38:27.596Z,17.93
2019-02-19T20:40:58.037Z,12.63
2019-02-19T20:43:27.228Z,13.70
2019-02-19T20:45:56.581Z,13.17
2019-02-19T20:48:26.708Z,16.93
2019-02-19T20:50:56.744Z,17.23
2019-02-19T20:53:26.893Z,13.90
2019-02-19T20:55:56.460Z,13.77
2019-02-19T20:58:26.138Z,18.13
2019-02-19T21:00:57.310Z,15.47
2019-02-19T21:03:26.659Z,14.87
2019-02-19T21:05:56.279Z,16.37
2019-02-19T21:08:25.571Z,15.93
2019-02-19T21:10:55.419Z,19.17
2019-02-19T21:13:25.087Z,15.33
2019-02-19T21:15:55.317Z,17.07
2019-02-19T21:18:24.916Z,18.07
2019-02-19T21:20:54.812Z,16.47
2019-02-19T21:23:24.142Z,20.73
2019-02-19T21:25:53.310Z,14.47
2019-02-19T21:28:24.170Z,16.90
2019-02-19T21:30:54.330Z,18.83
2019-02-19T21:33:23.699Z,17.03
2019-02-19T21:35:57.623Z,18.87
2019-02-19T21:38:25.960Z,20.50
2019-02-19T21:40:55.306Z,22.20
2019-02-19T21:43:24.874Z,18.97
2019-02-19T21:45:54.282Z,17.73
2019-02-19T21:48:24.343Z,13.97
2019-02-19T21:50:53.885Z,15.23
2019-02-19T21:53:23.255Z,16.60
2019-02-19T21:55:54.760Z,18.07
2019-02-19T21:58:24.289Z,14.27
2019-02-19T22:00:54.535Z,14.17
2019-02-19T22:03:23.945Z,17.40
2019-02-19T22:05:53.433Z,15.83
2019-02-19T22:08:23.622Z,15.70
2019-02-19T22:10:53.936Z,16.50
2019-02-19T22:13:24.765Z,16.40
2019-02-19T22:15:54.462Z,16.23
2019-02-19T22:18:24.260Z,17.00
2019-02-19T22:21:00.708Z,17.60
2019-02-19T22:23:30.071Z,20.63
2019-02-19T22:25:59.780Z,15.47
2019-02-19T22:28:29.882Z,14.80
2019-02-19T22:30:59.172Z,14.27
2019-02-19T22:33:28.481Z,15.67
2019-02-19T22:35:57.903Z,14.17
2019-02-19T22:38:27.241Z,16.97
2019-02-19T22:40:56.443Z,20.03
2019-02-19T22:43:26.104Z,18.13
2019-02-19T22:45:56.747Z,16.53
2019-02-19T22:48:26.860Z,17.13
2019-02-19T22:50:56.221Z,15.07
2019-02-19T22:53:43.173Z,15.30
2019-02-19T22:56:13.893Z,20.77
2019-02-19T22:58:44.016Z,14.63
2019-02-19T23:01:20.657Z,16.70
2019-02-19T23:03:50.879Z,16.97
